サルタ の空港の天気 - METARとTAF

サルタ空港 ( SASA / SLA ) - アルゼンチン サルタ州、Salta
飛行場実況気象(Metar)
観測時間05/28 08:00 ART (05/28 11:00 UTC)
風向・風速不定 1m/s
視程10km以上
天気現象
少しの雲 雲底高度 90m
全天を覆う雲 雲底高度 760m
気温11℃
湿度87%
気圧1014hPa
METARSASA 281100Z VRB02KT 9999 FEW003 OVC025 11/09 Q1014 RMK PP000
過去の天気等 Google飛行場航空写真 Wunderground天気予報

過去48時間のMETAR

飛行場予報(TAF)
発表時間: 5/27 14:00 ART (5/27 17:00 UTC)
予報対象時間: 27日15時 ART ~ 28日15時 ART
風向・風速北東 3m/s
視程10km以上
全天の8割程度の雲 雲底高度 1220m
27日15時 ART ~ 27日18時 ART に徐々に
風向・風速北北東 5m/s
視程10km以上
全天の4割程度の雲 雲底高度 910m
28日0時 ART ~ 28日3時 ART に徐々に
風向・風速不定 1m/s
28日3時 ART ~ 27日6時 ART に徐々に
風向・風速不定 2m/s
視程400m
天気現象霧雨 もや
全天の4割程度の雲 雲底高度 180m
全天を覆う雲 雲底高度 1070m
28日9時 ART ~ 28日12時 ART に徐々に
風向・風速北東 3m/s
視程10km以上
TAF SASA 271700Z 2718/2818 05005KT 9999 BKN040 TX20/2718Z TN06/2810Z
BECMG 2718/2721 02010KT 9999 SCT030
BECMG 2803/2806 VRB02KT 500 FG SCT007 BKN025
BECMG 2806/2709 VRB03KT 0400 DZ BR SCT006 OVC035
BECMG 2812/2815 05005KT 9999 NWS SCT015 BKN040